Airport details for: LZTT (Slovak Republic)

Metar

LZTT 170130Z VRB01KT 9999 VCFG FEW001 05/04 Q1027

General details

ICAO: LZTT
IATA: TAT
Name (city): Tatry
Major:
Country: Slovak Republic
vACC: vACC Slovakia
Description:

Poprad-Tatry Airport (Slovak: Letisko Poprad-Tatry) (IATA: TAT, ICAO: LZTT), is an airport in the Slovak ski resort town of Poprad. It is an airport with one of the highest elevations in Central Europe, at 718 m, which is 150 m higher than Innsbruck Airport in Austria, and 989 m lower than Samedan Airport in Switzerland. (wiki)

Scenery links:
FS9 scenery: Download
FSX/P3D scenery: Download
XP scenery: Download
Elevation: 2356 ft.
Transition altitude: 10000 ft.
MSA: 8500 ft.
Latitude: 49.073611
Longitude: 20.241111
LZTT Charts
LZTT Notams
LZTT Online stations

Runways

Number Course Length Elevation Lat Lon ILS ILS freq ILS FAC GP
07L 70° 2493ft / 760 m 2311ft 49.069969 20.235628 - - 3.0°
07R 70° 2493ft / 760 m 2309ft 49.069625 20.235783 - - 3.0°
09 91° 8530ft / 2600 m 2355ft 49.074433 20.223394 - - 3.0°
25L 250° 2493ft / 760 m 2299ft 49.071569 20.245756 - - 3.0°
25R 250° 2493ft / 760 m 2301ft 49.071914 20.2456 - - 3.0°
27 271° 8530ft / 2600 m 2278ft 49.072756 20.258886 110.1 271° 3.5°